<?xml version="1.0" encoding="UTF-8" standalone="no" ?>
<gpx xmlns="http://www.topografix.com/GPX/1/1" xmlns:xsi="http://www.w3.org/2001/XMLSchema-instance" xsi:schemaLocation="http://www.topografix.com/GPX/1/1 http://www.topografix.com/GPX/1/1/gpx.xsd" version="1.1" creator="VisuGPX - https://www.visugpx.com">
  <metadata>
    <name>[16/04/2022] Le Rouret [6km-200d]</name>
    <desc><![CDATA[Matias -  Grotte de la chevre d'or
]]></desc>
  </metadata>
  <wpt lat="43.66965" lon="7.05829">
    <ele>201.43</ele>
    <name><![CDATA[]]></name>
    <type><![CDATA[Point de départ]]></type>
  </wpt>
  <wpt lat="43.67251" lon="7.05504">
    <ele>207.04</ele>
    <name><![CDATA[]]></name>
    <desc><![CDATA[<p><br /><h3>Nom: Segment: 1</h3><br />Heure de départ: 14:05 16 avr. 2022<br/>Heure d'arrivée: 16:37 16 avr. 2022<br/>Distance: 5,7km (02:31)<br/>Temps déplacement: 00:40<br/>Vitesse moyenne: 2,27 km/h<br/>Vitesse moyenne mouv.: 8,46 km/h<br/>Vitesse Max.: 35,33 km/h<br/>Altitude minimale: 132 m<br/>Altitude maximale: 213 m<br/>Vitesse de montée: 787 m/h<br/>Vitesse de descente: 508,8 m/h<br/>Gain d'altitude: 154 m<br/>Perte d'altitude: 157 m<br/>Temps de montée: 00:11<br/>Temps de descente: 00:18<br/></p>]]></desc>
    <type><![CDATA[Point d'arrivée]]></type>
  </wpt>
  <trk>
    <name><![CDATA[2022-04-16 14:05:50]]></name>
    <desc><![CDATA[<p>Heure de départ: 14:05 16 avr. 2022<br/>Heure d'arrivée: 16:37 16 avr. 2022<br/>Distance: 5,7 km (02:31)<br/>Temps déplacement: 00:40<br/>Vitesse moyenne: 2,27 km/h<br/>Vitesse moyenne mouv.: 8,46 km/h<br/>Vitesse Max.: 35,33 km/h<br/>Altitude minimale: 132 m<br/>Altitude maximale: 213 m<br/>Vitesse de montée: 787 m/h<br/>Vitesse de descente: 508,8 m/h<br/>Gain d'altitude: 154 m<br/>Perte d'altitude: 157 m<br/>Temps de montée: 00:11<br/>Temps de descente: 00:18<br/></p><hr align="center" width="480" style="height: 2px; width: 517px"/>]]></desc>
    <trkseg>
      <trkpt lat="43.66965" lon="7.05829">
        <ele>201.43</ele>
        <time>2022-04-16T12:05:53.000Z</time>
      </trkpt>
      <trkpt lat="43.66974" lon="7.05851">
        <ele>200.43</ele>
        <time>2022-04-16T12:06:34.000Z</time>
      </trkpt>
      <trkpt lat="43.66974" lon="7.05876">
        <ele>199.53</ele>
        <time>2022-04-16T12:06:57.000Z</time>
      </trkpt>
      <trkpt lat="43.66978" lon="7.05901">
        <ele>200.2</ele>
        <time>2022-04-16T12:07:17.000Z</time>
      </trkpt>
      <trkpt lat="43.66981" lon="7.05927">
        <ele>199.53</ele>
        <time>2022-04-16T12:07:33.000Z</time>
      </trkpt>
      <trkpt lat="43.66981" lon="7.05954">
        <ele>199.17</ele>
        <time>2022-04-16T12:07:53.000Z</time>
      </trkpt>
      <trkpt lat="43.66989" lon="7.05977">
        <ele>198.41</ele>
        <time>2022-04-16T12:08:12.000Z</time>
      </trkpt>
      <trkpt lat="43.67" lon="7.05997">
        <ele>198.13</ele>
        <time>2022-04-16T12:08:36.000Z</time>
      </trkpt>
      <trkpt lat="43.67017" lon="7.06003">
        <ele>195.51</ele>
        <time>2022-04-16T12:09:18.000Z</time>
      </trkpt>
      <trkpt lat="43.67036" lon="7.06001">
        <ele>193.75</ele>
        <time>2022-04-16T12:09:55.000Z</time>
      </trkpt>
      <trkpt lat="43.67054" lon="7.06">
        <ele>192.65</ele>
        <time>2022-04-16T12:10:17.000Z</time>
      </trkpt>
      <trkpt lat="43.67072" lon="7.06008">
        <ele>192.41</ele>
        <time>2022-04-16T12:10:38.000Z</time>
      </trkpt>
      <trkpt lat="43.67087" lon="7.06023">
        <ele>193.92</ele>
        <time>2022-04-16T12:10:56.000Z</time>
      </trkpt>
      <trkpt lat="43.67103" lon="7.06034">
        <ele>194.53</ele>
        <time>2022-04-16T12:11:15.000Z</time>
      </trkpt>
      <trkpt lat="43.67121" lon="7.0603">
        <ele>193.44</ele>
        <time>2022-04-16T12:11:38.000Z</time>
      </trkpt>
      <trkpt lat="43.67138" lon="7.0602">
        <ele>194.51</ele>
        <time>2022-04-16T12:12:09.000Z</time>
      </trkpt>
      <trkpt lat="43.67155" lon="7.0601">
        <ele>194.74</ele>
        <time>2022-04-16T12:12:56.000Z</time>
      </trkpt>
      <trkpt lat="43.6717" lon="7.06025">
        <ele>195.73</ele>
        <time>2022-04-16T12:13:30.000Z</time>
      </trkpt>
      <trkpt lat="43.67186" lon="7.06038">
        <ele>198.32</ele>
        <time>2022-04-16T12:13:54.000Z</time>
      </trkpt>
      <trkpt lat="43.67204" lon="7.06035">
        <ele>197.84</ele>
        <time>2022-04-16T12:15:44.000Z</time>
      </trkpt>
      <trkpt lat="43.67222" lon="7.06027">
        <ele>198.85</ele>
        <time>2022-04-16T12:16:06.000Z</time>
      </trkpt>
      <trkpt lat="43.67238" lon="7.06015">
        <ele>198.45</ele>
        <time>2022-04-16T12:16:28.000Z</time>
      </trkpt>
      <trkpt lat="43.67252" lon="7.05997">
        <ele>198.19</ele>
        <time>2022-04-16T12:16:56.000Z</time>
      </trkpt>
      <trkpt lat="43.67266" lon="7.05983">
        <ele>196.39</ele>
        <time>2022-04-16T12:17:17.000Z</time>
      </trkpt>
      <trkpt lat="43.67281" lon="7.05967">
        <ele>195.76</ele>
        <time>2022-04-16T12:17:35.000Z</time>
      </trkpt>
      <trkpt lat="43.67293" lon="7.05948">
        <ele>195.05</ele>
        <time>2022-04-16T12:17:58.000Z</time>
      </trkpt>
      <trkpt lat="43.67305" lon="7.0593">
        <ele>196.14</ele>
        <time>2022-04-16T12:18:36.000Z</time>
      </trkpt>
      <trkpt lat="43.67313" lon="7.05907">
        <ele>197.83</ele>
        <time>2022-04-16T12:18:57.000Z</time>
      </trkpt>
      <trkpt lat="43.67331" lon="7.05909">
        <ele>198.23</ele>
        <time>2022-04-16T12:19:31.000Z</time>
      </trkpt>
      <trkpt lat="43.6735" lon="7.05909">
        <ele>199.41</ele>
        <time>2022-04-16T12:35:53.000Z</time>
      </trkpt>
      <trkpt lat="43.67367" lon="7.059">
        <ele>202.17</ele>
        <time>2022-04-16T12:36:16.000Z</time>
      </trkpt>
      <trkpt lat="43.67367" lon="7.05926">
        <ele>200.33</ele>
        <time>2022-04-16T12:36:44.000Z</time>
      </trkpt>
      <trkpt lat="43.67374" lon="7.05949">
        <ele>201.57</ele>
        <time>2022-04-16T12:37:21.000Z</time>
      </trkpt>
      <trkpt lat="43.67383" lon="7.0597">
        <ele>205.05</ele>
        <time>2022-04-16T12:37:53.000Z</time>
      </trkpt>
      <trkpt lat="43.67394" lon="7.05992">
        <ele>203.2</ele>
        <time>2022-04-16T12:38:20.000Z</time>
      </trkpt>
      <trkpt lat="43.67389" lon="7.06017">
        <ele>200.15</ele>
        <time>2022-04-16T12:38:42.000Z</time>
      </trkpt>
      <trkpt lat="43.6739" lon="7.06042">
        <ele>197.52</ele>
        <time>2022-04-16T12:39:01.000Z</time>
      </trkpt>
      <trkpt lat="43.67394" lon="7.06067">
        <ele>199.18</ele>
        <time>2022-04-16T12:39:25.000Z</time>
      </trkpt>
      <trkpt lat="43.67404" lon="7.06089">
        <ele>202.11</ele>
        <time>2022-04-16T12:39:46.000Z</time>
      </trkpt>
      <trkpt lat="43.67412" lon="7.06111">
        <ele>203.92</ele>
        <time>2022-04-16T12:40:04.000Z</time>
      </trkpt>
      <trkpt lat="43.67422" lon="7.06134">
        <ele>205.13</ele>
        <time>2022-04-16T12:40:21.000Z</time>
      </trkpt>
      <trkpt lat="43.67428" lon="7.06158">
        <ele>204.67</ele>
        <time>2022-04-16T12:40:43.000Z</time>
      </trkpt>
      <trkpt lat="43.67436" lon="7.06181">
        <ele>205.17</ele>
        <time>2022-04-16T12:41:02.000Z</time>
      </trkpt>
      <trkpt lat="43.67452" lon="7.06195">
        <ele>203.95</ele>
        <time>2022-04-16T12:41:25.000Z</time>
      </trkpt>
      <trkpt lat="43.67468" lon="7.06208">
        <ele>203.44</ele>
        <time>2022-04-16T12:41:41.000Z</time>
      </trkpt>
      <trkpt lat="43.67486" lon="7.06218">
        <ele>203.57</ele>
        <time>2022-04-16T12:42:00.000Z</time>
      </trkpt>
      <trkpt lat="43.675" lon="7.06234">
        <ele>203.41</ele>
        <time>2022-04-16T12:42:22.000Z</time>
      </trkpt>
      <trkpt lat="43.67508" lon="7.06258">
        <ele>203.2</ele>
        <time>2022-04-16T12:42:43.000Z</time>
      </trkpt>
      <trkpt lat="43.67512" lon="7.06282">
        <ele>198.8</ele>
        <time>2022-04-16T12:42:58.000Z</time>
      </trkpt>
      <trkpt lat="43.67515" lon="7.06307">
        <ele>189.1</ele>
        <time>2022-04-16T12:43:20.000Z</time>
      </trkpt>
      <trkpt lat="43.67529" lon="7.06325">
        <ele>187.64</ele>
        <time>2022-04-16T12:43:39.000Z</time>
      </trkpt>
      <trkpt lat="43.67547" lon="7.06328">
        <ele>189.18</ele>
        <time>2022-04-16T12:44:03.000Z</time>
      </trkpt>
      <trkpt lat="43.67564" lon="7.06315">
        <ele>190.05</ele>
        <time>2022-04-16T12:44:22.000Z</time>
      </trkpt>
      <trkpt lat="43.67577" lon="7.06296">
        <ele>191.27</ele>
        <time>2022-04-16T12:44:45.000Z</time>
      </trkpt>
      <trkpt lat="43.67593" lon="7.06283">
        <ele>191.85</ele>
        <time>2022-04-16T12:45:05.000Z</time>
      </trkpt>
      <trkpt lat="43.67611" lon="7.06275">
        <ele>192.08</ele>
        <time>2022-04-16T12:45:34.000Z</time>
      </trkpt>
      <trkpt lat="43.67629" lon="7.06282">
        <ele>192.19</ele>
        <time>2022-04-16T12:45:55.000Z</time>
      </trkpt>
      <trkpt lat="43.67635" lon="7.06306">
        <ele>190.32</ele>
        <time>2022-04-16T12:46:10.000Z</time>
      </trkpt>
      <trkpt lat="43.67634" lon="7.06331">
        <ele>183.56</ele>
        <time>2022-04-16T12:46:34.000Z</time>
      </trkpt>
      <trkpt lat="43.67638" lon="7.06355">
        <ele>182.56</ele>
        <time>2022-04-16T12:46:53.000Z</time>
      </trkpt>
      <trkpt lat="43.67639" lon="7.06381">
        <ele>180.31</ele>
        <time>2022-04-16T12:47:13.000Z</time>
      </trkpt>
      <trkpt lat="43.67638" lon="7.06407">
        <ele>179.02</ele>
        <time>2022-04-16T12:47:34.000Z</time>
      </trkpt>
      <trkpt lat="43.6763" lon="7.0643">
        <ele>177.9</ele>
        <time>2022-04-16T12:47:54.000Z</time>
      </trkpt>
      <trkpt lat="43.67639" lon="7.06453">
        <ele>176.92</ele>
        <time>2022-04-16T12:48:23.000Z</time>
      </trkpt>
      <trkpt lat="43.6765" lon="7.06473">
        <ele>176.03</ele>
        <time>2022-04-16T12:48:43.000Z</time>
      </trkpt>
      <trkpt lat="43.67662" lon="7.06493">
        <ele>175.41</ele>
        <time>2022-04-16T12:49:13.000Z</time>
      </trkpt>
      <trkpt lat="43.67665" lon="7.06517">
        <ele>180.15</ele>
        <time>2022-04-16T12:50:32.000Z</time>
      </trkpt>
      <trkpt lat="43.67666" lon="7.06542">
        <ele>180.89</ele>
        <time>2022-04-16T12:51:01.000Z</time>
      </trkpt>
      <trkpt lat="43.67681" lon="7.06555">
        <ele>180.28</ele>
        <time>2022-04-16T12:53:03.000Z</time>
      </trkpt>
      <trkpt lat="43.67688" lon="7.06578">
        <ele>178.78</ele>
        <time>2022-04-16T12:53:29.000Z</time>
      </trkpt>
      <trkpt lat="43.67695" lon="7.06602">
        <ele>181.77</ele>
        <time>2022-04-16T12:54:01.000Z</time>
      </trkpt>
      <trkpt lat="43.67713" lon="7.06609">
        <ele>184.51</ele>
        <time>2022-04-16T12:54:20.000Z</time>
      </trkpt>
      <trkpt lat="43.6773" lon="7.06618">
        <ele>183.95</ele>
        <time>2022-04-16T12:54:42.000Z</time>
      </trkpt>
      <trkpt lat="43.67748" lon="7.06614">
        <ele>185.9</ele>
        <time>2022-04-16T12:55:22.000Z</time>
      </trkpt>
      <trkpt lat="43.67766" lon="7.06618">
        <ele>189.73</ele>
        <time>2022-04-16T12:56:17.000Z</time>
      </trkpt>
      <trkpt lat="43.67782" lon="7.06629">
        <ele>190.3</ele>
        <time>2022-04-16T12:56:38.000Z</time>
      </trkpt>
      <trkpt lat="43.67799" lon="7.06639">
        <ele>193.26</ele>
        <time>2022-04-16T12:57:15.000Z</time>
      </trkpt>
      <trkpt lat="43.67817" lon="7.06639">
        <ele>192.6</ele>
        <time>2022-04-16T12:57:45.000Z</time>
      </trkpt>
      <trkpt lat="43.67835" lon="7.06634">
        <ele>193.31</ele>
        <time>2022-04-16T12:58:15.000Z</time>
      </trkpt>
      <trkpt lat="43.67853" lon="7.0663">
        <ele>194.77</ele>
        <time>2022-04-16T12:58:36.000Z</time>
      </trkpt>
      <trkpt lat="43.67872" lon="7.06627">
        <ele>195.34</ele>
        <time>2022-04-16T12:58:54.000Z</time>
      </trkpt>
      <trkpt lat="43.6789" lon="7.06622">
        <ele>195.87</ele>
        <time>2022-04-16T12:59:16.000Z</time>
      </trkpt>
      <trkpt lat="43.67907" lon="7.06613">
        <ele>195.91</ele>
        <time>2022-04-16T12:59:40.000Z</time>
      </trkpt>
      <trkpt lat="43.67925" lon="7.06614">
        <ele>196.54</ele>
        <time>2022-04-16T13:00:05.000Z</time>
      </trkpt>
      <trkpt lat="43.67943" lon="7.06616">
        <ele>194.28</ele>
        <time>2022-04-16T13:00:23.000Z</time>
      </trkpt>
      <trkpt lat="43.67962" lon="7.06622">
        <ele>193.34</ele>
        <time>2022-04-16T13:00:46.000Z</time>
      </trkpt>
      <trkpt lat="43.6798" lon="7.06624">
        <ele>190.45</ele>
        <time>2022-04-16T13:01:05.000Z</time>
      </trkpt>
      <trkpt lat="43.67998" lon="7.06629">
        <ele>188.87</ele>
        <time>2022-04-16T13:01:26.000Z</time>
      </trkpt>
      <trkpt lat="43.68016" lon="7.06625">
        <ele>184.76</ele>
        <time>2022-04-16T13:02:02.000Z</time>
      </trkpt>
      <trkpt lat="43.68027" lon="7.06606">
        <ele>182.8</ele>
        <time>2022-04-16T13:02:20.000Z</time>
      </trkpt>
      <trkpt lat="43.68016" lon="7.06626">
        <ele>186.54</ele>
        <time>2022-04-16T13:02:56.000Z</time>
      </trkpt>
      <trkpt lat="43.68018" lon="7.06651">
        <ele>190.12</ele>
        <time>2022-04-16T13:03:34.000Z</time>
      </trkpt>
      <trkpt lat="43.68023" lon="7.06675">
        <ele>192.48</ele>
        <time>2022-04-16T13:03:54.000Z</time>
      </trkpt>
      <trkpt lat="43.68035" lon="7.06694">
        <ele>194.15</ele>
        <time>2022-04-16T13:04:15.000Z</time>
      </trkpt>
      <trkpt lat="43.68053" lon="7.06698">
        <ele>195.02</ele>
        <time>2022-04-16T13:04:37.000Z</time>
      </trkpt>
      <trkpt lat="43.68071" lon="7.06705">
        <ele>195.03</ele>
        <time>2022-04-16T13:04:56.000Z</time>
      </trkpt>
      <trkpt lat="43.68087" lon="7.06716">
        <ele>195.22</ele>
        <time>2022-04-16T13:05:12.000Z</time>
      </trkpt>
      <trkpt lat="43.68106" lon="7.06719">
        <ele>194.08</ele>
        <time>2022-04-16T13:05:33.000Z</time>
      </trkpt>
      <trkpt lat="43.68124" lon="7.06721">
        <ele>192.24</ele>
        <time>2022-04-16T13:05:51.000Z</time>
      </trkpt>
      <trkpt lat="43.68142" lon="7.06727">
        <ele>189.12</ele>
        <time>2022-04-16T13:06:10.000Z</time>
      </trkpt>
      <trkpt lat="43.6815" lon="7.0675">
        <ele>184.83</ele>
        <time>2022-04-16T13:06:36.000Z</time>
      </trkpt>
      <trkpt lat="43.68152" lon="7.06774">
        <ele>181.11</ele>
        <time>2022-04-16T13:06:57.000Z</time>
      </trkpt>
      <trkpt lat="43.68148" lon="7.06799">
        <ele>177.81</ele>
        <time>2022-04-16T13:07:17.000Z</time>
      </trkpt>
      <trkpt lat="43.68143" lon="7.06824">
        <ele>174.74</ele>
        <time>2022-04-16T13:07:39.000Z</time>
      </trkpt>
      <trkpt lat="43.68147" lon="7.06848">
        <ele>170.01</ele>
        <time>2022-04-16T13:08:01.000Z</time>
      </trkpt>
      <trkpt lat="43.68161" lon="7.06866">
        <ele>167.41</ele>
        <time>2022-04-16T13:08:15.000Z</time>
      </trkpt>
      <trkpt lat="43.68178" lon="7.06878">
        <ele>164.98</ele>
        <time>2022-04-16T13:08:37.000Z</time>
      </trkpt>
      <trkpt lat="43.68196" lon="7.06886">
        <ele>160.64</ele>
        <time>2022-04-16T13:09:23.000Z</time>
      </trkpt>
      <trkpt lat="43.68215" lon="7.06891">
        <ele>158.96</ele>
        <time>2022-04-16T13:09:46.000Z</time>
      </trkpt>
      <trkpt lat="43.68233" lon="7.06889">
        <ele>156.25</ele>
        <time>2022-04-16T13:10:05.000Z</time>
      </trkpt>
      <trkpt lat="43.6825" lon="7.06882">
        <ele>153.77</ele>
        <time>2022-04-16T13:10:23.000Z</time>
      </trkpt>
      <trkpt lat="43.68268" lon="7.06891">
        <ele>153.2</ele>
        <time>2022-04-16T13:10:49.000Z</time>
      </trkpt>
      <trkpt lat="43.68286" lon="7.06894">
        <ele>152.23</ele>
        <time>2022-04-16T13:11:08.000Z</time>
      </trkpt>
      <trkpt lat="43.68305" lon="7.06895">
        <ele>150.15</ele>
        <time>2022-04-16T13:11:26.000Z</time>
      </trkpt>
      <trkpt lat="43.68313" lon="7.06919">
        <ele>144.81</ele>
        <time>2022-04-16T13:11:46.000Z</time>
      </trkpt>
      <trkpt lat="43.6833" lon="7.0691">
        <ele>138.2</ele>
        <time>2022-04-16T13:12:10.000Z</time>
      </trkpt>
      <trkpt lat="43.68347" lon="7.069">
        <ele>134.43</ele>
        <time>2022-04-16T13:12:32.000Z</time>
      </trkpt>
      <trkpt lat="43.68362" lon="7.06884">
        <ele>130.58</ele>
        <time>2022-04-16T13:12:50.000Z</time>
      </trkpt>
      <trkpt lat="43.68379" lon="7.06873">
        <ele>127.53</ele>
        <time>2022-04-16T13:13:10.000Z</time>
      </trkpt>
      <trkpt lat="43.68397" lon="7.06867">
        <ele>123.53</ele>
        <time>2022-04-16T13:13:38.000Z</time>
      </trkpt>
      <trkpt lat="43.68414" lon="7.06859">
        <ele>129.32</ele>
        <time>2022-04-16T13:14:06.000Z</time>
      </trkpt>
      <trkpt lat="43.68421" lon="7.06836">
        <ele>136.31</ele>
        <time>2022-04-16T13:14:41.000Z</time>
      </trkpt>
      <trkpt lat="43.68438" lon="7.06828">
        <ele>137.44</ele>
        <time>2022-04-16T13:15:30.000Z</time>
      </trkpt>
      <trkpt lat="43.68445" lon="7.068">
        <ele>137.89</ele>
        <time>2022-04-16T13:16:26.000Z</time>
      </trkpt>
      <trkpt lat="43.68463" lon="7.06779">
        <ele>137.14</ele>
        <time>2022-04-16T13:16:30.000Z</time>
      </trkpt>
      <trkpt lat="43.68477" lon="7.06763">
        <ele>136.57</ele>
        <time>2022-04-16T13:16:33.000Z</time>
      </trkpt>
      <trkpt lat="43.68464" lon="7.06831">
        <ele>163.66</ele>
        <time>2022-04-16T13:19:03.000Z</time>
      </trkpt>
      <trkpt lat="43.68443" lon="7.06824">
        <ele>149.19</ele>
        <time>2022-04-16T13:19:11.000Z</time>
      </trkpt>
      <trkpt lat="43.68421" lon="7.06829">
        <ele>133.97</ele>
        <time>2022-04-16T13:25:12.000Z</time>
      </trkpt>
      <trkpt lat="43.68413" lon="7.06851">
        <ele>133.99</ele>
        <time>2022-04-16T13:26:20.000Z</time>
      </trkpt>
      <trkpt lat="43.68398" lon="7.06865">
        <ele>131.09</ele>
        <time>2022-04-16T13:27:16.000Z</time>
      </trkpt>
      <trkpt lat="43.68372" lon="7.06868">
        <ele>130.25</ele>
        <time>2022-04-16T13:28:22.000Z</time>
      </trkpt>
      <trkpt lat="43.68348" lon="7.06867">
        <ele>132.04</ele>
        <time>2022-04-16T13:28:51.000Z</time>
      </trkpt>
      <trkpt lat="43.68331" lon="7.0685">
        <ele>134.42</ele>
        <time>2022-04-16T13:30:07.000Z</time>
      </trkpt>
      <trkpt lat="43.68314" lon="7.06831">
        <ele>136.56</ele>
        <time>2022-04-16T13:31:12.000Z</time>
      </trkpt>
      <trkpt lat="43.68304" lon="7.06804">
        <ele>138.26</ele>
        <time>2022-04-16T13:32:07.000Z</time>
      </trkpt>
      <trkpt lat="43.68295" lon="7.06777">
        <ele>140.16</ele>
        <time>2022-04-16T13:33:07.000Z</time>
      </trkpt>
      <trkpt lat="43.68282" lon="7.06753">
        <ele>140.06</ele>
        <time>2022-04-16T13:33:43.000Z</time>
      </trkpt>
      <trkpt lat="43.68271" lon="7.06731">
        <ele>142.32</ele>
        <time>2022-04-16T13:34:31.000Z</time>
      </trkpt>
      <trkpt lat="43.68265" lon="7.06701">
        <ele>146.54</ele>
        <time>2022-04-16T13:35:03.000Z</time>
      </trkpt>
      <trkpt lat="43.68259" lon="7.06671">
        <ele>148.7</ele>
        <time>2022-04-16T13:35:39.000Z</time>
      </trkpt>
      <trkpt lat="43.68255" lon="7.06641">
        <ele>152.95</ele>
        <time>2022-04-16T13:36:23.000Z</time>
      </trkpt>
      <trkpt lat="43.68242" lon="7.0662">
        <ele>159.81</ele>
        <time>2022-04-16T13:36:52.000Z</time>
      </trkpt>
      <trkpt lat="43.6823" lon="7.06594">
        <ele>168.73</ele>
        <time>2022-04-16T13:37:25.000Z</time>
      </trkpt>
      <trkpt lat="43.68214" lon="7.06575">
        <ele>174.39</ele>
        <time>2022-04-16T13:38:06.000Z</time>
      </trkpt>
      <trkpt lat="43.68196" lon="7.06563">
        <ele>179.5</ele>
        <time>2022-04-16T13:43:41.000Z</time>
      </trkpt>
      <trkpt lat="43.68181" lon="7.06539">
        <ele>181.41</ele>
        <time>2022-04-16T13:44:07.000Z</time>
      </trkpt>
      <trkpt lat="43.68175" lon="7.06509">
        <ele>181.46</ele>
        <time>2022-04-16T13:44:43.000Z</time>
      </trkpt>
      <trkpt lat="43.68165" lon="7.06484">
        <ele>183.23</ele>
        <time>2022-04-16T13:45:33.000Z</time>
      </trkpt>
      <trkpt lat="43.68165" lon="7.0645">
        <ele>185.06</ele>
        <time>2022-04-16T13:46:05.000Z</time>
      </trkpt>
      <trkpt lat="43.68165" lon="7.06415">
        <ele>185.32</ele>
        <time>2022-04-16T13:46:29.000Z</time>
      </trkpt>
      <trkpt lat="43.68147" lon="7.06403">
        <ele>182.92</ele>
        <time>2022-04-16T13:47:35.000Z</time>
      </trkpt>
      <trkpt lat="43.68132" lon="7.06425">
        <ele>184.28</ele>
        <time>2022-04-16T13:48:07.000Z</time>
      </trkpt>
      <trkpt lat="43.68108" lon="7.06436">
        <ele>187.44</ele>
        <time>2022-04-16T13:48:43.000Z</time>
      </trkpt>
      <trkpt lat="43.68108" lon="7.06409">
        <ele>190.72</ele>
        <time>2022-04-16T13:49:34.000Z</time>
      </trkpt>
      <trkpt lat="43.68112" lon="7.06384">
        <ele>192.27</ele>
        <time>2022-04-16T13:49:55.000Z</time>
      </trkpt>
      <trkpt lat="43.68116" lon="7.06358">
        <ele>192.45</ele>
        <time>2022-04-16T13:50:15.000Z</time>
      </trkpt>
      <trkpt lat="43.68119" lon="7.06332">
        <ele>192.83</ele>
        <time>2022-04-16T13:50:43.000Z</time>
      </trkpt>
      <trkpt lat="43.68105" lon="7.06316">
        <ele>193.32</ele>
        <time>2022-04-16T13:51:04.000Z</time>
      </trkpt>
      <trkpt lat="43.68087" lon="7.06297">
        <ele>194.24</ele>
        <time>2022-04-16T13:51:29.000Z</time>
      </trkpt>
      <trkpt lat="43.68067" lon="7.06279">
        <ele>196</ele>
        <time>2022-04-16T13:51:54.000Z</time>
      </trkpt>
      <trkpt lat="43.68055" lon="7.0626">
        <ele>194.57</ele>
        <time>2022-04-16T13:52:09.000Z</time>
      </trkpt>
      <trkpt lat="43.68052" lon="7.06235">
        <ele>193.11</ele>
        <time>2022-04-16T13:52:27.000Z</time>
      </trkpt>
      <trkpt lat="43.68039" lon="7.06201">
        <ele>189.97</ele>
        <time>2022-04-16T13:52:57.000Z</time>
      </trkpt>
      <trkpt lat="43.68017" lon="7.06181">
        <ele>185.84</ele>
        <time>2022-04-16T13:53:19.000Z</time>
      </trkpt>
      <trkpt lat="43.68005" lon="7.0616">
        <ele>180.47</ele>
        <time>2022-04-16T13:53:34.000Z</time>
      </trkpt>
      <trkpt lat="43.67997" lon="7.06132">
        <ele>176.15</ele>
        <time>2022-04-16T13:53:59.000Z</time>
      </trkpt>
      <trkpt lat="43.67991" lon="7.06102">
        <ele>167.75</ele>
        <time>2022-04-16T13:54:32.000Z</time>
      </trkpt>
      <trkpt lat="43.67982" lon="7.0607">
        <ele>164.84</ele>
        <time>2022-04-16T13:54:56.000Z</time>
      </trkpt>
      <trkpt lat="43.67965" lon="7.06041">
        <ele>163.95</ele>
        <time>2022-04-16T13:55:20.000Z</time>
      </trkpt>
      <trkpt lat="43.67955" lon="7.06012">
        <ele>162.75</ele>
        <time>2022-04-16T13:55:44.000Z</time>
      </trkpt>
      <trkpt lat="43.67953" lon="7.05978">
        <ele>162.08</ele>
        <time>2022-04-16T13:56:07.000Z</time>
      </trkpt>
      <trkpt lat="43.67947" lon="7.05947">
        <ele>161.96</ele>
        <time>2022-04-16T13:56:40.000Z</time>
      </trkpt>
      <trkpt lat="43.67939" lon="7.05924">
        <ele>160.43</ele>
        <time>2022-04-16T13:56:57.000Z</time>
      </trkpt>
      <trkpt lat="43.67931" lon="7.05888">
        <ele>160.49</ele>
        <time>2022-04-16T13:57:25.000Z</time>
      </trkpt>
      <trkpt lat="43.67927" lon="7.05856">
        <ele>160.48</ele>
        <time>2022-04-16T13:57:55.000Z</time>
      </trkpt>
      <trkpt lat="43.67923" lon="7.05831">
        <ele>163.21</ele>
        <time>2022-04-16T13:58:10.000Z</time>
      </trkpt>
      <trkpt lat="43.67916" lon="7.058">
        <ele>164.43</ele>
        <time>2022-04-16T13:58:37.000Z</time>
      </trkpt>
      <trkpt lat="43.67907" lon="7.0577">
        <ele>163.99</ele>
        <time>2022-04-16T13:59:02.000Z</time>
      </trkpt>
      <trkpt lat="43.67896" lon="7.05739">
        <ele>163.49</ele>
        <time>2022-04-16T13:59:28.000Z</time>
      </trkpt>
      <trkpt lat="43.67891" lon="7.05708">
        <ele>163.33</ele>
        <time>2022-04-16T13:59:56.000Z</time>
      </trkpt>
      <trkpt lat="43.6789" lon="7.0568">
        <ele>165.42</ele>
        <time>2022-04-16T14:00:35.000Z</time>
      </trkpt>
      <trkpt lat="43.67893" lon="7.05653">
        <ele>172</ele>
        <time>2022-04-16T14:00:52.000Z</time>
      </trkpt>
      <trkpt lat="43.67896" lon="7.05628">
        <ele>177.09</ele>
        <time>2022-04-16T14:01:15.000Z</time>
      </trkpt>
      <trkpt lat="43.67875" lon="7.0562">
        <ele>179.12</ele>
        <time>2022-04-16T14:01:58.000Z</time>
      </trkpt>
      <trkpt lat="43.67856" lon="7.05627">
        <ele>181.47</ele>
        <time>2022-04-16T14:02:49.000Z</time>
      </trkpt>
      <trkpt lat="43.67836" lon="7.05649">
        <ele>182.63</ele>
        <time>2022-04-16T14:03:13.000Z</time>
      </trkpt>
      <trkpt lat="43.6781" lon="7.05655">
        <ele>183.53</ele>
        <time>2022-04-16T14:03:37.000Z</time>
      </trkpt>
      <trkpt lat="43.67789" lon="7.05657">
        <ele>185.41</ele>
        <time>2022-04-16T14:04:15.000Z</time>
      </trkpt>
      <trkpt lat="43.67766" lon="7.05655">
        <ele>188.8</ele>
        <time>2022-04-16T14:04:55.000Z</time>
      </trkpt>
      <trkpt lat="43.67741" lon="7.05657">
        <ele>193.07</ele>
        <time>2022-04-16T14:05:23.000Z</time>
      </trkpt>
      <trkpt lat="43.67725" lon="7.05639">
        <ele>196.93</ele>
        <time>2022-04-16T14:05:50.000Z</time>
      </trkpt>
      <trkpt lat="43.67708" lon="7.0562">
        <ele>199.47</ele>
        <time>2022-04-16T14:06:35.000Z</time>
      </trkpt>
      <trkpt lat="43.67686" lon="7.0561">
        <ele>202.14</ele>
        <time>2022-04-16T14:07:05.000Z</time>
      </trkpt>
      <trkpt lat="43.67662" lon="7.056">
        <ele>204.53</ele>
        <time>2022-04-16T14:07:33.000Z</time>
      </trkpt>
      <trkpt lat="43.67641" lon="7.05584">
        <ele>206.87</ele>
        <time>2022-04-16T14:08:03.000Z</time>
      </trkpt>
      <trkpt lat="43.67623" lon="7.05565">
        <ele>206.92</ele>
        <time>2022-04-16T14:08:43.000Z</time>
      </trkpt>
      <trkpt lat="43.67603" lon="7.05552">
        <ele>208.67</ele>
        <time>2022-04-16T14:09:18.000Z</time>
      </trkpt>
      <trkpt lat="43.67579" lon="7.05555">
        <ele>210.95</ele>
        <time>2022-04-16T14:09:45.000Z</time>
      </trkpt>
      <trkpt lat="43.67557" lon="7.05561">
        <ele>211.99</ele>
        <time>2022-04-16T14:10:12.000Z</time>
      </trkpt>
      <trkpt lat="43.67534" lon="7.05559">
        <ele>210.92</ele>
        <time>2022-04-16T14:10:44.000Z</time>
      </trkpt>
      <trkpt lat="43.67521" lon="7.05535">
        <ele>209.63</ele>
        <time>2022-04-16T14:11:15.000Z</time>
      </trkpt>
      <trkpt lat="43.67516" lon="7.05503">
        <ele>208.83</ele>
        <time>2022-04-16T14:12:01.000Z</time>
      </trkpt>
      <trkpt lat="43.67502" lon="7.0548">
        <ele>208.74</ele>
        <time>2022-04-16T14:12:50.000Z</time>
      </trkpt>
      <trkpt lat="43.67485" lon="7.05494">
        <ele>210.34</ele>
        <time>2022-04-16T14:13:46.000Z</time>
      </trkpt>
      <trkpt lat="43.67466" lon="7.05492">
        <ele>212.72</ele>
        <time>2022-04-16T14:14:37.000Z</time>
      </trkpt>
      <trkpt lat="43.67443" lon="7.055">
        <ele>213.23</ele>
        <time>2022-04-16T14:15:05.000Z</time>
      </trkpt>
      <trkpt lat="43.67422" lon="7.05516">
        <ele>215.01</ele>
        <time>2022-04-16T14:15:33.000Z</time>
      </trkpt>
      <trkpt lat="43.67402" lon="7.05531">
        <ele>217.25</ele>
        <time>2022-04-16T14:16:00.000Z</time>
      </trkpt>
      <trkpt lat="43.67385" lon="7.05547">
        <ele>214.78</ele>
        <time>2022-04-16T14:21:21.000Z</time>
      </trkpt>
      <trkpt lat="43.67392" lon="7.05571">
        <ele>213.19</ele>
        <time>2022-04-16T14:23:51.000Z</time>
      </trkpt>
      <trkpt lat="43.67377" lon="7.05589">
        <ele>212.13</ele>
        <time>2022-04-16T14:24:19.000Z</time>
      </trkpt>
      <trkpt lat="43.67358" lon="7.05601">
        <ele>210.74</ele>
        <time>2022-04-16T14:24:42.000Z</time>
      </trkpt>
      <trkpt lat="43.6734" lon="7.0559">
        <ele>210.17</ele>
        <time>2022-04-16T14:25:21.000Z</time>
      </trkpt>
      <trkpt lat="43.67316" lon="7.05596">
        <ele>211.09</ele>
        <time>2022-04-16T14:25:43.000Z</time>
      </trkpt>
      <trkpt lat="43.67297" lon="7.05606">
        <ele>211.78</ele>
        <time>2022-04-16T14:26:03.000Z</time>
      </trkpt>
      <trkpt lat="43.67279" lon="7.05621">
        <ele>211.84</ele>
        <time>2022-04-16T14:26:21.000Z</time>
      </trkpt>
      <trkpt lat="43.67255" lon="7.05625">
        <ele>213.01</ele>
        <time>2022-04-16T14:27:38.000Z</time>
      </trkpt>
      <trkpt lat="43.67241" lon="7.05599">
        <ele>214.4</ele>
        <time>2022-04-16T14:28:04.000Z</time>
      </trkpt>
      <trkpt lat="43.67229" lon="7.05569">
        <ele>211.55</ele>
        <time>2022-04-16T14:28:33.000Z</time>
      </trkpt>
      <trkpt lat="43.67216" lon="7.05552">
        <ele>209.52</ele>
        <time>2022-04-16T14:28:57.000Z</time>
      </trkpt>
      <trkpt lat="43.67193" lon="7.05558">
        <ele>203.4</ele>
        <time>2022-04-16T14:29:26.000Z</time>
      </trkpt>
      <trkpt lat="43.67179" lon="7.05574">
        <ele>199.39</ele>
        <time>2022-04-16T14:29:43.000Z</time>
      </trkpt>
      <trkpt lat="43.67168" lon="7.05595">
        <ele>196.28</ele>
        <time>2022-04-16T14:30:00.000Z</time>
      </trkpt>
      <trkpt lat="43.67153" lon="7.05611">
        <ele>195.33</ele>
        <time>2022-04-16T14:30:18.000Z</time>
      </trkpt>
      <trkpt lat="43.67134" lon="7.05633">
        <ele>192.86</ele>
        <time>2022-04-16T14:30:44.000Z</time>
      </trkpt>
      <trkpt lat="43.6712" lon="7.0565">
        <ele>190.77</ele>
        <time>2022-04-16T14:31:02.000Z</time>
      </trkpt>
      <trkpt lat="43.67105" lon="7.05669">
        <ele>189.02</ele>
        <time>2022-04-16T14:31:22.000Z</time>
      </trkpt>
      <trkpt lat="43.67091" lon="7.05683">
        <ele>189.42</ele>
        <time>2022-04-16T14:31:38.000Z</time>
      </trkpt>
      <trkpt lat="43.6707" lon="7.0571">
        <ele>187.99</ele>
        <time>2022-04-16T14:32:08.000Z</time>
      </trkpt>
      <trkpt lat="43.67056" lon="7.05725">
        <ele>187.43</ele>
        <time>2022-04-16T14:32:25.000Z</time>
      </trkpt>
      <trkpt lat="43.67041" lon="7.05741">
        <ele>187.42</ele>
        <time>2022-04-16T14:32:42.000Z</time>
      </trkpt>
      <trkpt lat="43.67026" lon="7.05756">
        <ele>187.59</ele>
        <time>2022-04-16T14:32:59.000Z</time>
      </trkpt>
      <trkpt lat="43.67011" lon="7.05771">
        <ele>187.17</ele>
        <time>2022-04-16T14:33:17.000Z</time>
      </trkpt>
      <trkpt lat="43.66995" lon="7.05783">
        <ele>186.06</ele>
        <time>2022-04-16T14:33:35.000Z</time>
      </trkpt>
      <trkpt lat="43.66979" lon="7.05794">
        <ele>186.18</ele>
        <time>2022-04-16T14:33:52.000Z</time>
      </trkpt>
      <trkpt lat="43.66968" lon="7.05815">
        <ele>190.14</ele>
        <time>2022-04-16T14:34:11.000Z</time>
      </trkpt>
      <trkpt lat="43.66969" lon="7.05843">
        <ele>193.74</ele>
        <time>2022-04-16T14:34:37.000Z</time>
      </trkpt>
      <trkpt lat="43.66975" lon="7.05817">
        <ele>194.23</ele>
        <time>2022-04-16T14:36:15.000Z</time>
      </trkpt>
      <trkpt lat="43.66991" lon="7.058">
        <ele>193.8</ele>
        <time>2022-04-16T14:36:20.000Z</time>
      </trkpt>
      <trkpt lat="43.67007" lon="7.05787">
        <ele>193.56</ele>
        <time>2022-04-16T14:36:23.000Z</time>
      </trkpt>
      <trkpt lat="43.67024" lon="7.05771">
        <ele>193.93</ele>
        <time>2022-04-16T14:36:26.000Z</time>
      </trkpt>
      <trkpt lat="43.67046" lon="7.05753">
        <ele>194.92</ele>
        <time>2022-04-16T14:36:29.000Z</time>
      </trkpt>
      <trkpt lat="43.67067" lon="7.05731">
        <ele>195.64</ele>
        <time>2022-04-16T14:36:32.000Z</time>
      </trkpt>
      <trkpt lat="43.67087" lon="7.05708">
        <ele>196.06</ele>
        <time>2022-04-16T14:36:35.000Z</time>
      </trkpt>
      <trkpt lat="43.67107" lon="7.05687">
        <ele>196.01</ele>
        <time>2022-04-16T14:36:38.000Z</time>
      </trkpt>
      <trkpt lat="43.67126" lon="7.05664">
        <ele>196.46</ele>
        <time>2022-04-16T14:36:41.000Z</time>
      </trkpt>
      <trkpt lat="43.67138" lon="7.05645">
        <ele>197.01</ele>
        <time>2022-04-16T14:36:43.000Z</time>
      </trkpt>
      <trkpt lat="43.67151" lon="7.05627">
        <ele>197.56</ele>
        <time>2022-04-16T14:36:45.000Z</time>
      </trkpt>
      <trkpt lat="43.6717" lon="7.05602">
        <ele>198.78</ele>
        <time>2022-04-16T14:36:48.000Z</time>
      </trkpt>
      <trkpt lat="43.67184" lon="7.05585">
        <ele>199.08</ele>
        <time>2022-04-16T14:36:50.000Z</time>
      </trkpt>
      <trkpt lat="43.67197" lon="7.05566">
        <ele>199.66</ele>
        <time>2022-04-16T14:36:52.000Z</time>
      </trkpt>
      <trkpt lat="43.67214" lon="7.05541">
        <ele>201.79</ele>
        <time>2022-04-16T14:36:55.000Z</time>
      </trkpt>
      <trkpt lat="43.67233" lon="7.05522">
        <ele>204.12</ele>
        <time>2022-04-16T14:36:58.000Z</time>
      </trkpt>
      <trkpt lat="43.67251" lon="7.05504">
        <ele>207.04</ele>
        <time>2022-04-16T14:37:01.000Z</time>
      </trkpt>
    </trkseg>
  </trk>
</gpx>